Quick Links (Output Below):   Max & Min Temps   /   Climate Reports   /   Zone Forecasts
River Forecasts   /   Forestry Forecasts   /   Aviation Forecasts   /   Radars   /   Features

Terminal Aerodrome Forecast (Hot Springs)

Pick a Site:
Arkadelphia | El Dorado | Fayetteville | Fort Smith | Harrison | Highfill | Hot Springs | Jonesboro
Little Rock | Monticello | Mountain Home | Pine Bluff | Texarkana
 Forecast 

KHOT 012320Z 0200/0224 VRB03KT P6SM SCT100 BKN250
      TEMPO 0210/0214 5SM BR
     FM021500 19005KT P6SM SCT050=


 Latest METARs (Observations) 
How to Decode METARs
02Z KHOT 020153Z AUTO 00000KT 10SM CLR 24/18 A3006 RMK AO2 SLP174
         T02440183
         
01Z KHOT 020053Z AUTO 15003KT 10SM CLR 29/17 A3005 RMK AO2 SLP168
         T02940172
         
00Z KHOT 012353Z AUTO 00000KT 10SM CLR 31/18 A3005 RMK AO2 SLP168
         T03060183 10311 20300 55001
         
***** Today's Observations (Above) *****


23Z KHOT 012253Z AUTO 00000KT 10SM CLR 31/18 A3004 RMK AO2 SLP166
         T03110183
         
22Z KHOT 012153Z AUTO 21003KT 10SM CLR 31/18 A3005 RMK AO2 SLP168
         T03110183
         
21Z KHOT 012053Z AUTO 19003KT 10SM CLR 31/18 A3005 RMK AO2 SLP169
         T03060178 56012
         
20Z KHOT 011953Z AUTO 21004KT 10SM CLR 31/19 A3006 RMK AO2 SLP174
         T03060189
         
19Z KHOT 011853Z AUTO 16006KT 10SM CLR 31/18 A3007 RMK AO2 SLP176
         T03060183
         
18Z KHOT 011753Z AUTO VRB04KT 10SM CLR 31/18 A3009 RMK AO2 SLP181
         T03060183 10311 20200 58003
         
17Z KHOT 011653Z AUTO 00000KT 10SM CLR 30/18 A3011 RMK AO2 SLP188
         T03000183
         
***** Yesterday's Observations (Above) *****


Back to Main Page
http://www.srh.noaa.gov/lzk/qfcst.php

USA.gov is the U.S. government's official web portal to all federal, state and local government web resources and services.